createdAt,value
2022-12-18T00:01:44.954Z,9.68
2022-12-18T00:04:21.127Z,11.18
2022-12-18T00:06:47.733Z,10.48
2022-12-18T00:09:14.957Z,9.60
2022-12-18T00:11:41.461Z,12.38
2022-12-18T00:14:08.058Z,8.07
2022-12-18T00:16:36.692Z,7.90
2022-12-18T00:19:03.672Z,8.68
2022-12-18T00:21:30.723Z,10.35
2022-12-18T00:23:58.889Z,8.88
2022-12-18T00:26:29.912Z,9.80
2022-12-18T00:28:58.951Z,8.60
2022-12-18T00:31:25.803Z,7.95
2022-12-18T00:33:55.444Z,7.55
2022-12-18T00:36:26.841Z,9.57
2022-12-18T00:38:54.541Z,9.68
2022-12-18T00:41:40.065Z,7.68
2022-12-18T00:44:07.651Z,10.45
2022-12-18T00:46:35.282Z,9.15
2022-12-18T00:49:01.804Z,9.48
2022-12-18T00:51:31.415Z,9.27
2022-12-18T00:53:57.902Z,8.93
2022-12-18T00:56:25.083Z,8.30
2022-12-18T00:58:51.682Z,7.07
2022-12-18T01:01:18.470Z,9.23
2022-12-18T01:03:46.370Z,8.15
2022-12-18T01:06:13.915Z,7.93
2022-12-18T01:08:40.504Z,6.90
2022-12-18T01:11:11.182Z,9.32
2022-12-18T01:13:38.370Z,8.98
2022-12-18T01:16:07.829Z,7.20
2022-12-18T01:18:34.705Z,8.90
2022-12-18T01:21:01.250Z,8.70
2022-12-18T01:23:27.706Z,8.38
2022-12-18T01:25:54.190Z,9.02
2022-12-18T01:28:20.716Z,7.13
2022-12-18T01:30:48.286Z,8.32
2022-12-18T01:33:14.991Z,8.25
2022-12-18T01:35:44.368Z,8.35
2022-12-18T01:38:11.125Z,8.75
2022-12-18T01:40:37.722Z,9.13
2022-12-18T01:43:10.217Z,8.88
2022-12-18T01:45:36.794Z,10.35
2022-12-18T01:48:05.205Z,10.20
2022-12-18T01:50:33.659Z,9.30
2022-12-18T01:53:17.213Z,8.63
2022-12-18T01:55:48.821Z,8.80
2022-12-18T01:58:17.496Z,8.75
2022-12-18T02:00:44.257Z,9.07
2022-12-18T02:03:11.610Z,9.55
2022-12-18T02:05:43.727Z,8.40
2022-12-18T02:10:48.073Z,9.75
2022-12-18T02:13:48.147Z,9.75
2022-12-18T02:16:42.893Z,9.85
2022-12-18T02:19:21.721Z,10.63
2022-12-18T02:22:08.604Z,8.85
2022-12-18T02:24:55.945Z,10.95
2022-12-18T02:30:10.353Z,9.90
2022-12-18T02:32:39.715Z,9.90
2022-12-18T02:35:07.181Z,11.10
2022-12-18T02:37:37.497Z,10.75
2022-12-18T02:40:04.592Z,10.32
2022-12-18T02:42:31.766Z,9.35
2022-12-18T02:44:58.916Z,10.20
2022-12-18T02:47:28.698Z,9.40
2022-12-18T02:50:01.204Z,9.48
2022-12-18T02:52:28.106Z,9.30
2022-12-18T02:55:01.623Z,10.77
2022-12-18T02:57:30.900Z,13.23
2022-12-18T03:00:03.968Z,10.88
2022-12-18T03:02:42.608Z,12.50
2022-12-18T03:05:20.586Z,9.00
2022-12-18T03:07:54.287Z,9.90
2022-12-18T03:10:29.142Z,9.77
2022-12-18T03:13:07.093Z,10.32
2022-12-18T03:15:42.445Z,9.52
2022-12-18T03:18:11.693Z,9.85
2022-12-18T03:20:38.947Z,10.43
2022-12-18T03:23:14.073Z,10.38
2022-12-18T03:25:41.965Z,10.95
2022-12-18T03:28:09.767Z,11.05
2022-12-18T03:30:37.611Z,8.32
2022-12-18T03:33:08.740Z,11.02
2022-12-18T03:35:39.350Z,9.03
2022-12-18T03:38:06.189Z,11.63
2022-12-18T03:40:45.346Z,12.10
2022-12-18T03:43:19.812Z,8.88
2022-12-18T03:45:57.857Z,9.93
2022-12-18T03:48:24.481Z,11.88
2022-12-18T03:50:58.415Z,8.60
2022-12-18T03:53:24.996Z,11.48
2022-12-18T03:56:00.833Z,12.55
2022-12-18T03:58:28.020Z,9.35
2022-12-18T04:00:56.728Z,9.60
2022-12-18T04:03:26.694Z,9.25
2022-12-18T04:05:55.287Z,10.82
2022-12-18T04:08:22.836Z,11.18
2022-12-18T04:10:49.301Z,9.75
2022-12-18T04:13:22.733Z,10.43
2022-12-18T04:15:49.330Z,11.98
2022-12-18T04:18:15.864Z,12.65
2022-12-18T04:20:42.593Z,10.07
2022-12-18T04:23:09.099Z,9.35
2022-12-18T04:25:35.568Z,12.93
2022-12-18T04:28:02.093Z,10.25
2022-12-18T04:30:28.575Z,11.90
2022-12-18T04:32:55.122Z,9.68
2022-12-18T04:35:21.608Z,9.05
2022-12-18T04:37:48.087Z,10.13
2022-12-18T04:40:14.693Z,11.20
2022-12-18T04:42:41.629Z,12.60
2022-12-18T04:45:08.758Z,12.18
2022-12-18T04:47:35.296Z,9.82
2022-12-18T04:50:01.848Z,10.10
2022-12-18T04:52:30.609Z,10.75
2022-12-18T04:55:00.354Z,10.40
2022-12-18T04:57:27.375Z,10.32
2022-12-18T04:59:57.023Z,10.57
2022-12-18T05:02:23.646Z,10.40
2022-12-18T05:04:50.240Z,10.85
2022-12-18T05:07:16.740Z,9.85
2022-12-18T05:09:46.458Z,11.43
2022-12-18T05:12:16.135Z,11.45
2022-12-18T05:14:43.821Z,9.10
2022-12-18T05:17:15.673Z,9.90
2022-12-18T05:19:46.005Z,9.68
2022-12-18T05:22:12.824Z,11.88
2022-12-18T05:24:39.412Z,9.70
2022-12-18T05:27:08.898Z,9.23
2022-12-18T05:29:35.512Z,11.15
2022-12-18T05:32:02.140Z,11.30
2022-12-18T05:34:28.677Z,9.23
2022-12-18T05:36:55.350Z,9.73
2022-12-18T05:39:24.286Z,9.88
2022-12-18T05:41:50.804Z,10.02
2022-12-18T05:44:20.603Z,12.18
2022-12-18T05:46:49.903Z,10.35
2022-12-18T05:49:16.703Z,13.18
2022-12-18T05:51:43.244Z,11.75
2022-12-18T05:54:14.389Z,9.02
2022-12-18T05:56:45.542Z,9.93
2022-12-18T05:59:15.082Z,10.60
2022-12-18T06:01:41.973Z,12.77
2022-12-18T06:04:08.680Z,9.80
2022-12-18T06:06:35.284Z,9.93
2022-12-18T06:09:02.616Z,10.77
2022-12-18T06:11:30.826Z,9.43
2022-12-18T06:14:03.050Z,10.13
2022-12-18T06:16:29.717Z,12.75
2022-12-18T06:19:00.347Z,12.85
2022-12-18T06:21:27.583Z,10.45
2022-12-18T06:23:54.096Z,12.35
2022-12-18T06:26:26.159Z,10.02
2022-12-18T06:28:54.558Z,9.23
2022-12-18T06:31:21.090Z,9.07
2022-12-18T06:33:47.657Z,10.80
2022-12-18T06:36:14.318Z,10.43
2022-12-18T06:38:42.784Z,9.95
2022-12-18T06:41:10.473Z,10.93
2022-12-18T06:43:46.469Z,9.50
2022-12-18T06:46:13.674Z,10.13
2022-12-18T06:48:40.659Z,14.40
2022-12-18T06:51:07.438Z,12.18
2022-12-18T06:53:34.238Z,9.80
2022-12-18T06:56:05.179Z,12.00
2022-12-18T06:58:47.854Z,12.05
2022-12-18T07:01:17.803Z,10.75
2022-12-18T07:03:45.242Z,10.90
2022-12-18T07:06:18.943Z,11.05
2022-12-18T07:08:45.851Z,11.65
2022-12-18T07:11:12.590Z,12.13
2022-12-18T07:13:39.742Z,9.73
2022-12-18T07:16:10.888Z,11.77
2022-12-18T07:18:41.720Z,10.27
2022-12-18T07:21:09.397Z,11.27
2022-12-18T07:23:36.053Z,9.98
2022-12-18T07:26:03.972Z,12.05
2022-12-18T07:28:30.642Z,10.10
2022-12-18T07:30:57.186Z,10.20
2022-12-18T07:33:23.714Z,14.02
2022-12-18T07:35:50.299Z,12.32
2022-12-18T07:38:19.083Z,12.20
2022-12-18T07:40:45.585Z,11.23
2022-12-18T07:43:12.097Z,10.68
2022-12-18T07:45:38.669Z,12.45
2022-12-18T07:48:05.370Z,13.55
2022-12-18T07:50:34.395Z,13.55
2022-12-18T07:53:05.842Z,12.63
2022-12-18T07:55:59.821Z,12.38
2022-12-18T07:58:22.218Z,14.70
2022-12-18T08:00:48.793Z,12.25
2022-12-18T08:03:15.519Z,12.23
2022-12-18T08:05:42.167Z,14.88
2022-12-18T08:08:13.412Z,14.02
2022-12-18T08:10:41.045Z,14.02
2022-12-18T08:13:09.638Z,13.00
2022-12-18T08:15:42.008Z,13.55
2022-12-18T08:18:14.435Z,15.73
2022-12-18T08:20:50.644Z,15.27
2022-12-18T08:23:17.191Z,12.15
2022-12-18T08:25:43.747Z,11.75
2022-12-18T08:28:10.257Z,12.60
2022-12-18T08:30:37.035Z,12.35
2022-12-18T08:33:06.600Z,11.93
2022-12-18T08:35:38.755Z,12.82
2022-12-18T08:38:29.288Z,11.90
2022-12-18T08:41:05.877Z,12.75
2022-12-18T08:43:51.739Z,11.70
2022-12-18T08:46:22.008Z,10.50
2022-12-18T08:48:51.261Z,10.32
2022-12-18T08:52:33.835Z,11.05
2022-12-18T08:55:00.448Z,11.23
2022-12-18T08:57:29.793Z,13.38
2022-12-18T08:59:57.741Z,14.65
2022-12-18T09:02:24.805Z,17.02
2022-12-18T09:04:57.140Z,15.75
2022-12-18T09:07:27.043Z,12.13
2022-12-18T09:09:58.162Z,12.65
2022-12-18T09:12:27.352Z,13.20
2022-12-18T09:14:53.964Z,15.18
2022-12-18T09:17:20.800Z,11.52
2022-12-18T09:19:47.485Z,14.25
2022-12-18T09:22:14.298Z,10.00
2022-12-18T09:24:41.005Z,10.52
2022-12-18T09:27:08.128Z,9.32
2022-12-18T09:29:34.718Z,11.73
2022-12-18T09:32:04.635Z,12.38
2022-12-18T09:34:31.328Z,9.88
2022-12-18T09:36:58.004Z,12.52
2022-12-18T09:39:24.727Z,12.73
2022-12-18T09:41:58.929Z,10.73
2022-12-18T09:44:25.727Z,11.48
2022-12-18T09:47:10.818Z,14.00
2022-12-18T09:49:43.384Z,12.75
2022-12-18T09:52:49.534Z,10.48
2022-12-18T09:55:42.431Z,15.75
2022-12-18T09:58:32.521Z,10.90
2022-12-18T10:00:59.896Z,12.18
2022-12-18T10:03:27.384Z,10.35
2022-12-18T10:06:08.061Z,14.43
2022-12-18T10:08:50.267Z,12.88
2022-12-18T10:12:04.388Z,11.63
2022-12-18T10:14:42.272Z,14.93
2022-12-18T10:17:43.020Z,11.35
2022-12-18T10:20:55.090Z,11.73
2022-12-18T10:23:42.503Z,15.23
2022-12-18T10:26:19.284Z,12.07
2022-12-18T10:28:48.090Z,12.30
2022-12-18T10:31:20.315Z,12.98
2022-12-18T10:33:48.651Z,13.00
2022-12-18T10:36:19.009Z,15.32
2022-12-18T10:38:45.753Z,12.13
2022-12-18T10:41:21.664Z,14.05
2022-12-18T10:43:49.303Z,20.13
2022-12-18T10:46:18.981Z,12.52
2022-12-18T10:48:48.790Z,13.25
2022-12-18T10:51:31.702Z,12.02
2022-12-18T10:54:22.178Z,11.73
2022-12-18T10:56:50.915Z,12.40
2022-12-18T10:59:18.946Z,14.38
2022-12-18T11:01:57.791Z,11.65
2022-12-18T11:04:34.132Z,12.48
2022-12-18T11:07:08.356Z,13.00
2022-12-18T11:09:40.437Z,13.40
2022-12-18T11:14:50.084Z,14.20
2022-12-18T11:17:33.285Z,15.20
2022-12-18T11:20:43.172Z,13.00
2022-12-18T11:23:14.592Z,14.43
2022-12-18T11:25:51.983Z,13.77
2022-12-18T11:28:29.945Z,15.15
2022-12-18T11:31:29.488Z,12.50
2022-12-18T11:34:29.034Z,13.10
2022-12-18T11:36:58.919Z,13.90
2022-12-18T11:39:41.088Z,11.88
2022-12-18T11:42:24.081Z,15.75
2022-12-18T11:45:04.260Z,13.15
2022-12-18T11:47:45.564Z,18.65
2022-12-18T11:50:18.509Z,12.70
2022-12-18T11:52:45.981Z,11.70
2022-12-18T11:55:14.121Z,13.70
2022-12-18T11:58:05.960Z,13.73
2022-12-18T12:00:35.742Z,13.77
2022-12-18T12:03:21.121Z,13.48
2022-12-18T12:06:20.841Z,14.45
2022-12-18T12:09:22.302Z,13.63
2022-12-18T12:12:04.327Z,15.27
2022-12-18T12:15:01.352Z,10.93
2022-12-18T12:17:38.450Z,17.73
2022-12-18T12:20:21.524Z,14.82
2022-12-18T12:23:01.200Z,13.35
2022-12-18T12:25:57.208Z,12.88
2022-12-18T12:28:48.771Z,12.23
2022-12-18T12:31:27.152Z,12.55
2022-12-18T12:34:02.746Z,13.68
2022-12-18T12:36:41.721Z,12.65
2022-12-18T12:39:23.627Z,13.32
2022-12-18T12:41:50.261Z,10.82
2022-12-18T12:44:25.893Z,13.95
2022-12-18T12:46:59.212Z,17.52
2022-12-18T12:49:30.722Z,16.85
2022-12-18T12:52:15.751Z,16.92
2022-12-18T12:54:44.464Z,13.55
2022-12-18T12:57:31.487Z,13.43
2022-12-18T13:00:14.725Z,12.90
2022-12-18T13:02:57.072Z,12.60
2022-12-18T13:08:12.904Z,12.32
2022-12-18T13:10:42.602Z,12.20
2022-12-18T13:13:21.137Z,14.02
2022-12-18T13:16:10.411Z,11.75
2022-12-18T13:18:38.676Z,14.73
2022-12-18T13:21:27.502Z,14.65
2022-12-18T13:23:54.934Z,23.60
2022-12-18T13:26:28.909Z,17.17
2022-12-18T13:28:58.069Z,13.75
2022-12-18T13:31:30.872Z,15.68
2022-12-18T13:34:26.912Z,15.27
2022-12-18T13:36:57.586Z,16.98
2022-12-18T13:39:34.906Z,14.63
2022-12-18T13:42:11.190Z,13.20
2022-12-18T13:44:41.480Z,13.48
2022-12-18T13:47:37.500Z,13.27
2022-12-18T13:50:24.333Z,17.23
2022-12-18T13:52:53.808Z,15.63
2022-12-18T13:55:22.959Z,19.65
2022-12-18T13:57:50.957Z,17.92
2022-12-18T14:00:29.152Z,13.88
2022-12-18T14:02:58.525Z,18.73
2022-12-18T14:05:31.674Z,14.88
2022-12-18T14:08:06.025Z,13.23
2022-12-18T14:10:49.204Z,13.68
2022-12-18T14:13:34.854Z,20.20
2022-12-18T14:16:07.652Z,17.13
2022-12-18T14:19:09.510Z,17.38
2022-12-18T14:21:52.695Z,16.40
2022-12-18T14:24:22.349Z,16.75
2022-12-18T14:26:52.962Z,18.17
2022-12-18T14:29:33.008Z,16.73
2022-12-18T14:32:26.579Z,16.90
2022-12-18T14:34:54.928Z,15.45
2022-12-18T14:37:25.315Z,14.23
2022-12-18T14:39:55.988Z,15.93
2022-12-18T14:42:22.677Z,18.95
2022-12-18T14:47:35.861Z,16.73
2022-12-18T14:50:02.583Z,16.40
2022-12-18T14:52:32.668Z,18.13
2022-12-18T14:54:59.388Z,16.63
2022-12-18T14:57:37.859Z,16.27
2022-12-18T15:00:16.590Z,16.35
2022-12-18T15:02:46.228Z,18.58
2022-12-18T15:05:25.854Z,20.75
2022-12-18T15:07:54.759Z,17.80
2022-12-18T15:10:33.480Z,17.10
2022-12-18T15:13:00.005Z,19.08
2022-12-18T15:15:36.353Z,17.00
2022-12-18T15:18:16.683Z,18.88
2022-12-18T15:20:58.097Z,18.95
2022-12-18T15:23:35.335Z,19.67
2022-12-18T15:26:04.659Z,21.20
2022-12-18T15:28:45.587Z,16.42
2022-12-18T15:31:17.048Z,19.73
2022-12-18T15:33:59.613Z,20.50
2022-12-18T15:36:29.333Z,22.35
2022-12-18T15:39:04.576Z,17.45
2022-12-18T15:41:40.279Z,26.73
2022-12-18T15:44:28.661Z,18.67
2022-12-18T15:47:01.925Z,20.50
2022-12-18T15:49:28.591Z,28.83
2022-12-18T15:52:00.806Z,27.10
2022-12-18T15:54:27.524Z,23.00
2022-12-18T15:56:57.078Z,21.00
2022-12-18T15:59:27.797Z,20.52
2022-12-18T16:01:54.540Z,20.17
2022-12-18T16:04:22.954Z,19.35
2022-12-18T16:09:37.593Z,20.23
2022-12-18T16:12:07.013Z,22.67
2022-12-18T16:14:36.534Z,23.13
2022-12-18T16:17:06.550Z,20.05
2022-12-18T16:19:33.180Z,20.90
2022-12-18T16:22:15.784Z,23.17
2022-12-18T16:24:42.488Z,23.55
2022-12-18T16:27:11.074Z,24.38
2022-12-18T16:29:40.773Z,24.05
2022-12-18T16:32:13.914Z,23.60
2022-12-18T16:34:40.898Z,20.98
2022-12-18T16:37:09.824Z,24.52
2022-12-18T16:39:38.170Z,21.77
2022-12-18T16:42:24.989Z,22.23
2022-12-18T16:44:51.623Z,25.15
2022-12-18T16:47:21.128Z,34.55
2022-12-18T16:49:47.831Z,30.08
2022-12-18T16:52:16.632Z,29.45
2022-12-18T16:54:44.890Z,21.45
2022-12-18T16:57:17.416Z,29.48
2022-12-18T16:59:44.309Z,25.80
2022-12-18T17:02:18.055Z,28.48
2022-12-18T17:04:47.037Z,31.05
2022-12-18T17:07:14.168Z,30.88
2022-12-18T17:09:41.353Z,25.20
2022-12-18T17:12:08.819Z,25.17
2022-12-18T17:14:38.722Z,30.55
2022-12-18T17:17:22.569Z,24.02
2022-12-18T17:19:51.447Z,24.08
2022-12-18T17:22:18.198Z,25.55
2022-12-18T17:24:44.856Z,34.63
2022-12-18T17:27:11.682Z,25.70
2022-12-18T17:29:42.471Z,29.17
2022-12-18T17:32:13.453Z,28.00
2022-12-18T17:34:40.205Z,29.20
2022-12-18T17:37:06.862Z,23.30
2022-12-18T17:39:33.540Z,29.95
2022-12-18T17:42:01.171Z,27.63
2022-12-18T17:44:27.914Z,26.73
2022-12-18T17:46:54.673Z,26.27
2022-12-18T17:49:21.743Z,33.50
2022-12-18T17:51:48.670Z,29.08
2022-12-18T17:54:15.440Z,29.00
2022-12-18T17:56:43.061Z,29.58
2022-12-18T17:59:10.235Z,31.98
2022-12-18T18:01:43.736Z,28.60
2022-12-18T18:04:11.839Z,34.03
2022-12-18T18:06:39.395Z,34.00
2022-12-18T18:09:15.145Z,32.33
2022-12-18T18:11:44.830Z,30.17
2022-12-18T18:14:15.898Z,37.30
2022-12-18T18:16:51.054Z,30.08
2022-12-18T18:19:20.817Z,34.33
2022-12-18T18:21:49.569Z,28.55
2022-12-18T18:24:19.410Z,30.00
2022-12-18T18:26:46.489Z,35.88
2022-12-18T18:29:18.742Z,35.90
2022-12-18T18:31:46.082Z,33.15
2022-12-18T18:34:20.906Z,32.15
2022-12-18T18:36:47.920Z,32.05
2022-12-18T18:39:14.860Z,38.03
2022-12-18T18:41:41.565Z,32.53
2022-12-18T18:44:13.522Z,34.65
2022-12-18T18:46:43.269Z,36.90
2022-12-18T18:49:10.081Z,38.10
2022-12-18T18:51:41.928Z,30.88
2022-12-18T18:54:09.817Z,33.60
2022-12-18T18:59:29.156Z,31.10
2022-12-18T19:01:58.604Z,33.25
2022-12-18T19:04:29.283Z,35.00
2022-12-18T19:06:55.923Z,31.50
2022-12-18T19:09:23.911Z,32.85
2022-12-18T19:11:51.872Z,36.25
2022-12-18T19:14:18.718Z,36.22
2022-12-18T19:16:45.563Z,31.98
2022-12-18T19:19:13.351Z,31.90
2022-12-18T19:21:40.966Z,36.60
2022-12-18T19:24:08.101Z,33.03
2022-12-18T19:26:37.134Z,42.85
2022-12-18T19:29:07.742Z,32.47
2022-12-18T19:31:37.030Z,31.60
2022-12-18T19:34:07.742Z,31.75
2022-12-18T19:36:36.857Z,35.78
2022-12-18T19:39:12.097Z,33.67
2022-12-18T19:41:39.228Z,31.38
2022-12-18T19:44:08.227Z,36.13
2022-12-18T19:46:35.860Z,33.63
2022-12-18T19:49:03.412Z,31.92
2022-12-18T19:51:31.770Z,40.55
2022-12-18T19:54:01.608Z,30.48
2022-12-18T19:56:31.868Z,31.63
2022-12-18T19:58:59.064Z,33.30
2022-12-18T20:01:27.255Z,31.92
2022-12-18T20:03:55.487Z,39.65
2022-12-18T20:06:26.386Z,34.42
2022-12-18T20:08:59.597Z,42.80
2022-12-18T20:11:28.181Z,41.45
2022-12-18T20:13:54.794Z,35.17
2022-12-18T20:16:21.448Z,33.80
2022-12-18T20:18:48.543Z,36.05
2022-12-18T20:21:16.333Z,38.53
2022-12-18T20:23:43.622Z,35.63
2022-12-18T20:26:13.985Z,34.97
2022-12-18T20:28:40.844Z,40.95
2022-12-18T20:31:13.677Z,37.95
2022-12-18T20:33:41.061Z,36.67
2022-12-18T20:36:13.691Z,40.83
2022-12-18T20:38:41.274Z,41.22
2022-12-18T20:41:16.072Z,38.45
2022-12-18T20:43:43.196Z,37.97
2022-12-18T20:46:12.138Z,37.20
2022-12-18T20:48:42.578Z,33.80
2022-12-18T20:51:12.397Z,44.53
2022-12-18T20:53:41.683Z,47.03
2022-12-18T20:56:15.166Z,39.97
2022-12-18T20:58:46.631Z,43.65
2022-12-18T21:01:15.885Z,35.65
2022-12-18T21:03:44.363Z,35.53
2022-12-18T21:06:11.011Z,35.83
2022-12-18T21:08:37.971Z,40.08
2022-12-18T21:11:18.590Z,40.15
2022-12-18T21:13:45.329Z,42.13
2022-12-18T21:16:11.945Z,39.53
2022-12-18T21:18:38.580Z,42.85
2022-12-18T21:21:05.366Z,39.38
2022-12-18T21:23:35.060Z,40.85
2022-12-18T21:26:26.182Z,45.33
2022-12-18T21:28:57.411Z,41.92
2022-12-18T21:31:27.024Z,41.30
2022-12-18T21:33:54.181Z,46.38
2022-12-18T21:36:31.918Z,49.22
2022-12-18T21:39:01.131Z,48.25
2022-12-18T21:41:29.246Z,43.63
2022-12-18T21:43:56.668Z,47.85
2022-12-18T21:46:25.921Z,44.72
2022-12-18T21:48:52.571Z,46.35
2022-12-18T21:51:19.249Z,43.63
2022-12-18T21:53:47.130Z,45.25
2022-12-18T21:56:15.739Z,45.05
2022-12-18T21:58:56.869Z,38.35
2022-12-18T22:01:24.174Z,39.40
2022-12-18T22:04:01.675Z,39.17
2022-12-18T22:06:28.332Z,39.92
2022-12-18T22:08:54.920Z,37.53
2022-12-18T22:11:21.651Z,44.78
2022-12-18T22:13:49.710Z,40.90
2022-12-18T22:16:16.476Z,34.83
2022-12-18T22:18:43.137Z,37.83
2022-12-18T22:21:31.691Z,37.42
2022-12-18T22:24:13.485Z,44.03
2022-12-18T22:26:40.567Z,41.38
2022-12-18T22:29:10.330Z,40.08
2022-12-18T22:31:40.293Z,48.42
2022-12-18T22:34:08.160Z,49.90
2022-12-18T22:36:37.333Z,49.30
2022-12-18T22:39:11.909Z,48.50
2022-12-18T22:41:40.244Z,55.88
2022-12-18T22:44:07.346Z,52.45
2022-12-18T22:46:42.861Z,51.35
2022-12-18T22:49:17.732Z,48.55
2022-12-18T22:51:44.683Z,52.05
2022-12-18T22:54:11.869Z,48.00
2022-12-18T22:56:38.728Z,61.20
2022-12-18T22:59:14.452Z,63.55
2022-12-18T23:01:44.832Z,69.90
2022-12-18T23:04:16.630Z,75.68
2022-12-18T23:06:45.541Z,80.60
2022-12-18T23:09:20.787Z,82.45
2022-12-18T23:11:51.823Z,81.78
2022-12-18T23:14:18.439Z,91.60
2022-12-18T23:16:45.146Z,95.03
2022-12-18T23:19:19.987Z,91.50
2022-12-18T23:21:51.121Z,107.72
2022-12-18T23:24:19.435Z,85.82
2022-12-18T23:26:49.828Z,122.05
2022-12-18T23:29:24.300Z,89.65
2022-12-18T23:31:50.990Z,114.63
2022-12-18T23:34:17.745Z,103.18
2022-12-18T23:36:47.172Z,82.88
2022-12-18T23:39:28.987Z,91.55
2022-12-18T23:41:58.965Z,88.13
2022-12-18T23:44:28.574Z,80.75
2022-12-18T23:46:55.540Z,96.63
2022-12-18T23:49:22.840Z,84.20
2022-12-18T23:51:49.550Z,93.78
2022-12-18T23:54:19.520Z,85.95
2022-12-18T23:57:02.720Z,92.28
2022-12-18T23:59:31.151Z,89.63
